createdAt,value
2022-10-30T00:02:02.940Z,71.63
2022-10-30T00:07:04.372Z,71.49
2022-10-30T00:12:05.828Z,71.57
2022-10-30T00:17:07.174Z,71.61
2022-10-30T00:22:09.523Z,71.42
2022-10-30T00:27:10.881Z,71.40
2022-10-30T00:32:12.273Z,71.76
2022-10-30T00:37:13.673Z,71.75
2022-10-30T00:42:16.601Z,71.74
2022-10-30T00:47:34.221Z,71.70
2022-10-30T00:52:40.451Z,71.79
2022-10-30T00:57:42.800Z,71.80
2022-10-30T01:02:44.682Z,71.82
2022-10-30T01:07:46.058Z,71.68
2022-10-30T01:12:49.599Z,71.81
2022-10-30T01:18:21.793Z,71.92
2022-10-30T01:23:41.738Z,71.89
2022-10-30T01:29:01.857Z,72.04
2022-10-30T01:34:09.843Z,72.10
2022-10-30T01:39:15.803Z,72.24
2022-10-30T01:44:28.475Z,72.02
2022-10-30T01:50:03.205Z,72.18
2022-10-30T01:55:09.292Z,71.94
2022-10-30T02:00:13.770Z,72.13
2022-10-30T02:05:27.013Z,72.40
2022-10-30T02:10:30.494Z,72.34
2022-10-30T02:15:32.225Z,72.28
2022-10-30T02:20:33.650Z,72.57
2022-10-30T02:25:35.137Z,72.66
2022-10-30T02:30:36.830Z,72.42
2022-10-30T02:35:38.199Z,72.77
2022-10-30T02:40:39.537Z,72.62
2022-10-30T02:45:40.866Z,72.54
2022-10-30T02:50:42.202Z,72.60
2022-10-30T02:55:43.593Z,72.49
2022-10-30T03:00:44.963Z,72.50
2022-10-30T03:05:46.281Z,72.43
2022-10-30T03:10:47.608Z,72.61
2022-10-30T03:15:48.941Z,72.61
2022-10-30T03:20:50.320Z,72.51
2022-10-30T03:25:53.923Z,72.78
2022-10-30T03:31:00.420Z,73.36
2022-10-30T03:36:02.103Z,73.75
2022-10-30T03:41:04.405Z,73.54
2022-10-30T03:46:05.835Z,73.71
2022-10-30T03:51:07.237Z,73.68
2022-10-30T03:56:09.943Z,73.45
2022-10-30T04:01:11.541Z,73.54
2022-10-30T04:06:13.034Z,73.25
2022-10-30T04:11:14.433Z,73.16
2022-10-30T04:16:15.835Z,73.42
2022-10-30T04:21:17.258Z,73.40
2022-10-30T04:26:18.593Z,73.34
2022-10-30T04:31:19.990Z,73.37
2022-10-30T04:36:24.139Z,73.17
2022-10-30T04:41:25.648Z,73.38
2022-10-30T04:46:27.037Z,73.37
2022-10-30T04:51:28.434Z,73.39
2022-10-30T04:56:29.848Z,73.36
2022-10-30T05:01:31.271Z,73.68
2022-10-30T05:06:33.193Z,73.58
2022-10-30T05:11:34.590Z,73.51
2022-10-30T05:16:36.016Z,73.38
2022-10-30T05:21:37.498Z,73.29
2022-10-30T05:26:38.840Z,73.33
2022-10-30T05:31:40.645Z,73.18
2022-10-30T05:36:42.018Z,73.21
2022-10-30T05:41:43.398Z,73.14
2022-10-30T05:46:44.880Z,73.18
2022-10-30T05:51:46.337Z,73.16
2022-10-30T05:56:47.669Z,73.33
2022-10-30T06:01:48.993Z,73.37
2022-10-30T06:06:50.341Z,73.27
2022-10-30T06:11:52.758Z,73.21
2022-10-30T06:16:54.090Z,73.15
2022-10-30T06:21:55.445Z,73.27
2022-10-30T06:26:56.894Z,73.16
2022-10-30T06:31:59.787Z,73.20
2022-10-30T06:37:03.741Z,73.29
2022-10-30T06:42:05.317Z,73.12
2022-10-30T06:47:06.658Z,73.38
2022-10-30T06:52:08.096Z,73.34
2022-10-30T06:57:09.441Z,73.27
2022-10-30T07:02:11.507Z,73.31
2022-10-30T07:07:13.846Z,73.37
2022-10-30T07:12:15.393Z,73.30
2022-10-30T07:17:16.756Z,73.50
2022-10-30T07:22:18.531Z,73.52
2022-10-30T07:27:19.865Z,73.45
2022-10-30T07:32:21.313Z,73.56
2022-10-30T07:37:22.633Z,73.49
2022-10-30T07:42:24.086Z,73.61
2022-10-30T07:47:25.455Z,73.73
2022-10-30T07:52:31.302Z,73.50
2022-10-30T07:57:40.629Z,73.52
2022-10-30T08:02:42.486Z,73.41
2022-10-30T08:07:46.541Z,73.37
2022-10-30T08:12:48.187Z,73.51
2022-10-30T08:17:50.666Z,73.40
2022-10-30T08:22:57.204Z,73.67
2022-10-30T08:28:04.836Z,73.90
2022-10-30T08:33:10.691Z,73.77
2022-10-30T08:38:11.985Z,73.86
2022-10-30T08:43:14.069Z,73.85
2022-10-30T08:48:16.514Z,73.72
2022-10-30T08:53:18.242Z,73.48
2022-10-30T08:58:19.595Z,73.53
2022-10-30T09:03:20.921Z,73.40
2022-10-30T09:08:22.324Z,73.32
2022-10-30T09:13:24.579Z,73.30
2022-10-30T09:18:25.949Z,73.01
2022-10-30T09:23:27.287Z,72.62
2022-10-30T09:28:28.631Z,72.43
2022-10-30T09:33:30.060Z,72.33
2022-10-30T09:38:31.394Z,71.79
2022-10-30T09:43:55.110Z,71.56
2022-10-30T09:49:20.210Z,71.04
2022-10-30T09:54:37.071Z,70.54
2022-10-30T10:00:01.344Z,69.69
2022-10-30T10:05:22.983Z,69.47
2022-10-30T10:10:44.220Z,68.98
2022-10-30T10:15:51.624Z,68.00
2022-10-30T10:20:58.165Z,67.43
2022-10-30T10:26:14.153Z,66.61
2022-10-30T10:31:38.170Z,66.05
2022-10-30T10:36:58.706Z,65.45
2022-10-30T10:42:24.317Z,64.85
2022-10-30T10:47:39.701Z,63.77
2022-10-30T10:52:47.530Z,63.61
2022-10-30T10:57:51.227Z,62.95
2022-10-30T11:03:09.306Z,62.27
2022-10-30T11:08:17.127Z,61.44
2022-10-30T11:13:18.486Z,61.26
2022-10-30T11:18:19.850Z,60.63
2022-10-30T11:23:31.167Z,59.99
2022-10-30T11:28:42.376Z,59.23
2022-10-30T11:33:43.896Z,59.40
2022-10-30T11:38:45.537Z,58.78
2022-10-30T11:43:49.115Z,57.88
2022-10-30T11:48:56.742Z,57.26
2022-10-30T11:53:58.413Z,56.42
2022-10-30T11:59:02.883Z,55.96
2022-10-30T12:04:33.666Z,55.39
2022-10-30T12:09:45.841Z,54.45
2022-10-30T12:14:47.313Z,54.42
2022-10-30T12:19:51.267Z,54.12
2022-10-30T12:24:53.136Z,53.31
2022-10-30T12:30:17.720Z,53.04
2022-10-30T12:35:35.940Z,52.30
2022-10-30T12:40:43.950Z,52.03
2022-10-30T12:45:48.796Z,51.93
2022-10-30T12:51:12.307Z,51.53
2022-10-30T12:56:19.626Z,51.07
2022-10-30T13:01:32.403Z,50.74
2022-10-30T13:06:42.127Z,50.15
2022-10-30T13:11:52.942Z,49.79
2022-10-30T13:16:54.318Z,50.19
2022-10-30T13:22:08.169Z,49.55
2022-10-30T13:27:28.182Z,49.56
2022-10-30T13:32:54.578Z,49.46
2022-10-30T13:38:33.294Z,49.25
2022-10-30T13:43:49.729Z,48.71
2022-10-30T13:48:59.901Z,48.66
2022-10-30T13:54:17.110Z,48.30
2022-10-30T13:59:47.448Z,48.08
2022-10-30T14:04:58.833Z,48.03
2022-10-30T14:10:39.244Z,48.11
2022-10-30T14:15:43.698Z,47.78
2022-10-30T14:20:49.874Z,48.05
2022-10-30T14:26:06.487Z,48.26
2022-10-30T14:31:33.880Z,48.57
2022-10-30T14:36:38.503Z,49.47
2022-10-30T14:41:54.896Z,50.49
2022-10-30T14:46:59.152Z,51.65
2022-10-30T14:52:29.883Z,52.34
2022-10-30T14:57:47.661Z,52.83
2022-10-30T15:03:06.938Z,52.91
2022-10-30T15:08:26.374Z,53.16
2022-10-30T15:13:27.938Z,53.54
2022-10-30T15:18:31.010Z,54.09
2022-10-30T15:23:41.804Z,54.75
2022-10-30T15:28:43.416Z,54.90
2022-10-30T15:33:44.992Z,54.84
2022-10-30T15:39:11.331Z,55.24
2022-10-30T15:49:32.659Z,56.09
2022-10-30T15:54:34.419Z,56.61
2022-10-30T15:59:35.962Z,57.17
2022-10-30T16:04:39.183Z,57.83
2022-10-30T16:10:01.883Z,58.46
2022-10-30T16:15:15.887Z,58.47
2022-10-30T16:20:17.682Z,59.18
2022-10-30T16:25:21.373Z,59.43
2022-10-30T16:30:23.787Z,59.94
2022-10-30T16:35:26.591Z,60.62
2022-10-30T16:40:29.066Z,60.98
2022-10-30T16:45:33.878Z,61.84
2022-10-30T16:50:37.257Z,62.01
2022-10-30T16:55:38.779Z,62.44
2022-10-30T17:00:42.079Z,63.07
2022-10-30T17:05:43.597Z,63.36
2022-10-30T17:10:47.889Z,63.88
2022-10-30T17:15:49.315Z,64.18
2022-10-30T17:21:11.587Z,65.03
2022-10-30T17:26:13.726Z,65.58
2022-10-30T17:31:18.198Z,65.68
2022-10-30T17:36:19.984Z,65.78
2022-10-30T17:41:21.388Z,66.10
2022-10-30T17:46:25.606Z,66.17
2022-10-30T17:51:27.115Z,66.53
2022-10-30T17:56:31.762Z,66.57
2022-10-30T18:01:33.386Z,66.83
2022-10-30T18:06:34.817Z,66.94
2022-10-30T18:11:36.902Z,67.19
2022-10-30T18:16:38.596Z,67.49
2022-10-30T18:21:40.219Z,67.42
2022-10-30T18:26:42.106Z,67.73
2022-10-30T18:31:43.533Z,67.80
2022-10-30T18:36:44.947Z,67.92
2022-10-30T18:41:47.361Z,68.24
2022-10-30T18:46:48.875Z,68.38
2022-10-30T18:51:50.263Z,68.34
2022-10-30T18:56:51.659Z,68.88
2022-10-30T19:01:53.240Z,68.98
2022-10-30T19:06:54.740Z,69.04
2022-10-30T19:11:56.500Z,69.40
2022-10-30T19:16:57.891Z,69.49
2022-10-30T19:21:59.368Z,69.59
2022-10-30T19:27:00.755Z,69.63
2022-10-30T19:32:02.138Z,69.36
2022-10-30T19:37:03.521Z,69.28
2022-10-30T19:42:05.030Z,69.50
2022-10-30T19:47:09.705Z,69.66
2022-10-30T19:52:11.119Z,69.51
2022-10-30T19:57:14.036Z,69.72
2022-10-30T20:02:15.471Z,69.99
2022-10-30T20:07:17.382Z,70.27
2022-10-30T20:12:18.795Z,70.26
2022-10-30T20:17:20.203Z,70.24
2022-10-30T20:22:27.151Z,70.29
2022-10-30T20:27:29.688Z,70.26
2022-10-30T20:32:31.163Z,70.18
2022-10-30T20:37:32.543Z,70.46
2022-10-30T20:42:37.180Z,70.31
2022-10-30T20:47:38.818Z,70.34
2022-10-30T20:52:40.534Z,70.36
2022-10-30T20:57:41.928Z,70.42
2022-10-30T21:02:43.424Z,70.61
2022-10-30T21:07:45.870Z,70.71
2022-10-30T21:12:47.257Z,70.56
2022-10-30T21:17:48.654Z,70.97
2022-10-30T21:22:49.992Z,70.88
2022-10-30T21:27:51.427Z,70.86
2022-10-30T21:32:52.979Z,70.88
2022-10-30T21:37:54.337Z,70.87
2022-10-30T21:42:58.550Z,70.93
2022-10-30T21:48:02.854Z,70.82
2022-10-30T21:53:04.206Z,70.82
2022-10-30T21:58:05.814Z,70.83
2022-10-30T22:03:10.299Z,71.16
2022-10-30T22:08:11.703Z,71.09
2022-10-30T22:13:13.119Z,70.97
2022-10-30T22:18:14.485Z,71.27
2022-10-30T22:23:15.899Z,71.13
2022-10-30T22:33:20.073Z,71.25
2022-10-30T22:38:21.448Z,71.60
2022-10-30T22:43:22.835Z,72.12
2022-10-30T22:48:24.173Z,71.51
2022-10-30T22:53:30.110Z,71.59
2022-10-30T22:58:31.433Z,72.19
2022-10-30T23:03:32.771Z,72.00
2022-10-30T23:08:34.803Z,72.00
2022-10-30T23:13:37.072Z,72.02
2022-10-30T23:18:38.559Z,71.91
2022-10-30T23:23:41.434Z,71.95
2022-10-30T23:28:43.645Z,71.84
2022-10-30T23:33:49.094Z,71.51
2022-10-30T23:38:52.806Z,71.79
2022-10-30T23:43:59.703Z,71.83
2022-10-30T23:49:02.266Z,71.78
2022-10-30T23:54:03.994Z,71.60
2022-10-30T23:59:05.365Z,71.77
